Decoded Metar for KBWW ( in ) (IATA:) | Meteo·Mobile Aviation Weather
aviador You're here:

KBWW Decoded Metar

in
Report Time2018-08-21 11:35:00
UTC Time2018-08-21 12:14:17
Flight Rules vfr VFR
Wind290° at 06 kt
W.Decomp.*RWY 31: 5.6 kt HW 2.1 kt LCW
W.Rank290° ranks 4
Current wind is below 290° avg. (12.8)
Visibility9999 m
Phenomena:N/A
Clouds:Scattered 075 Hf
Expected CloudBase > 400 ft AGL from Temp-Dew spread
CeilingNone
Temp11°C
Dew Point10°C (94% RH)
AAT8.9°C
QNH1023 hPa
Raw Report
METAR KBWW 211135Z AUTO 29006KT 10SM SCT075 11/10 A3020 RMK AO2=

Extra information for KBWW:More info

Social comments